createdAt,value
2018-07-05T00:00:29.578Z,67.70
2018-07-05T00:03:09.351Z,68.20
2018-07-05T00:05:48.907Z,68.10
2018-07-05T00:08:28.516Z,67.40
2018-07-05T00:11:08.237Z,67.60
2018-07-05T00:13:48.009Z,67.90
2018-07-05T00:19:05.554Z,68.10
2018-07-05T00:21:45.027Z,67.50
2018-07-05T00:24:24.810Z,67.20
2018-07-05T00:27:04.395Z,67.20
2018-07-05T00:29:43.889Z,66.90
2018-07-05T00:32:23.521Z,66.90
2018-07-05T00:35:03.155Z,67.30
2018-07-05T00:37:42.822Z,67.60
2018-07-05T00:40:26.958Z,66.90
2018-07-05T00:43:06.542Z,69.90
2018-07-05T00:45:46.123Z,70.80
2018-07-05T00:48:25.878Z,70.90
2018-07-05T00:51:05.628Z,71.30
2018-07-05T00:53:45.185Z,72.00
2018-07-05T00:56:24.853Z,73.60
2018-07-05T00:59:04.467Z,74.10
2018-07-05T01:01:46.113Z,73.10
2018-07-05T01:04:25.782Z,71.90
2018-07-05T01:09:39.047Z,70.90
2018-07-05T01:12:18.641Z,70.20
2018-07-05T01:14:58.293Z,70.00
2018-07-05T01:17:37.863Z,69.50
2018-07-05T01:20:17.548Z,68.90
2018-07-05T01:25:52.140Z,68.80
2018-07-05T01:28:31.819Z,69.10
2018-07-05T01:31:11.481Z,69.60
2018-07-05T01:33:51.029Z,69.60
2018-07-05T01:36:30.805Z,69.70
2018-07-05T01:39:10.419Z,69.70
2018-07-05T01:41:50.217Z,71.00
2018-07-05T01:44:29.752Z,71.40
2018-07-05T01:47:11.042Z,71.30
2018-07-05T01:49:50.639Z,71.00
2018-07-05T01:52:30.370Z,70.80
2018-07-05T01:55:09.969Z,70.60
2018-07-05T01:57:50.271Z,70.50
2018-07-05T02:00:29.917Z,70.50
2018-07-05T02:03:09.532Z,71.80
2018-07-05T02:05:49.204Z,71.90
2018-07-05T02:08:31.938Z,71.20
2018-07-05T02:11:11.510Z,71.60
2018-07-05T02:13:51.095Z,72.20
2018-07-05T02:16:30.829Z,72.10
2018-07-05T02:19:10.370Z,73.00
2018-07-05T02:21:49.901Z,73.50
2018-07-05T02:24:29.401Z,74.00
2018-07-05T02:27:09.055Z,73.40
2018-07-05T02:29:48.918Z,73.90
2018-07-05T02:32:28.857Z,74.10
2018-07-05T02:35:08.815Z,74.00
2018-07-05T02:37:54.075Z,74.20
2018-07-05T02:40:34.059Z,74.10
2018-07-05T02:43:14.196Z,74.10
2018-07-05T02:45:54.135Z,73.70
2018-07-05T02:48:33.791Z,74.10
2018-07-05T02:51:21.048Z,74.30
2018-07-05T02:54:00.698Z,74.40
2018-07-05T02:56:40.248Z,74.60
2018-07-05T02:59:20.176Z,74.60
2018-07-05T03:01:59.779Z,75.20
2018-07-05T03:04:39.610Z,74.80
2018-07-05T03:07:19.175Z,75.70
2018-07-05T03:09:58.779Z,75.90
2018-07-05T03:15:32.316Z,76.70
2018-07-05T03:18:12.128Z,77.10
2018-07-05T03:20:51.817Z,76.60
2018-07-05T03:26:05.013Z,77.90
2018-07-05T03:28:44.792Z,77.40
2018-07-05T03:31:24.530Z,78.00
2018-07-05T03:34:04.235Z,78.10
2018-07-05T03:36:52.424Z,77.30
2018-07-05T03:39:32.238Z,78.00
2018-07-05T03:42:12.009Z,79.00
2018-07-05T03:44:51.703Z,78.90
2018-07-05T03:47:31.141Z,78.80
2018-07-05T03:50:10.951Z,78.40
2018-07-05T03:52:50.710Z,78.00
2018-07-05T03:55:30.288Z,78.00
2018-07-05T03:58:12.377Z,77.90
2018-07-05T04:00:51.997Z,78.40
2018-07-05T04:03:31.788Z,78.40
2018-07-05T04:06:11.531Z,78.70
2018-07-05T04:08:51.112Z,78.70
2018-07-05T04:11:30.804Z,79.60
2018-07-05T04:14:10.443Z,79.30
2018-07-05T04:16:49.956Z,79.80
2018-07-05T04:19:40.504Z,80.30
2018-07-05T04:22:20.287Z,80.60
2018-07-05T04:25:00.119Z,81.10
2018-07-05T04:27:39.904Z,80.90
2018-07-05T04:30:19.473Z,81.50
2018-07-05T04:32:59.201Z,82.00
2018-07-05T04:35:38.842Z,81.40
2018-07-05T04:38:18.459Z,80.70
2018-07-05T04:41:00.181Z,80.70
2018-07-05T04:43:40.009Z,80.40
2018-07-05T04:46:19.562Z,80.20
2018-07-05T04:48:59.233Z,79.80
2018-07-05T04:51:39.041Z,79.70
2018-07-05T04:54:18.958Z,79.60
2018-07-05T04:56:58.667Z,79.50
2018-07-05T04:59:38.382Z,79.20
2018-07-05T05:02:18.247Z,79.20
2018-07-05T05:04:57.760Z,79.80
2018-07-05T05:07:37.353Z,79.80
2018-07-05T05:10:17.003Z,80.30
2018-07-05T05:12:56.591Z,80.00
2018-07-05T05:15:36.285Z,80.90
2018-07-05T05:18:15.814Z,80.40
2018-07-05T05:20:55.596Z,79.80
2018-07-05T05:29:02.257Z,80.70
2018-07-05T05:31:41.931Z,81.10
2018-07-05T05:34:21.642Z,82.00
2018-07-05T05:37:01.269Z,80.70
2018-07-05T05:39:41.046Z,80.00
2018-07-05T05:42:20.946Z,79.60
2018-07-05T05:45:00.555Z,80.80
2018-07-05T05:47:41.491Z,80.20
2018-07-05T05:50:21.040Z,80.00
2018-07-05T05:53:00.557Z,78.90
2018-07-05T05:55:40.197Z,79.00
2018-07-05T05:58:19.976Z,79.10
2018-07-05T06:00:59.616Z,78.20
2018-07-05T06:03:39.281Z,77.20
2018-07-05T06:06:18.958Z,77.50
2018-07-05T06:08:58.610Z,77.30
2018-07-05T06:11:38.243Z,77.30
2018-07-05T06:14:17.955Z,77.20
2018-07-05T06:16:57.573Z,77.30
2018-07-05T06:19:37.393Z,76.80
2018-07-05T06:22:17.142Z,76.10
2018-07-05T06:24:56.833Z,76.10
2018-07-05T06:27:36.591Z,76.10
2018-07-05T06:30:17.564Z,76.00
2018-07-05T06:35:31.124Z,75.70
2018-07-05T06:40:44.952Z,75.50
2018-07-05T06:43:24.643Z,76.20
2018-07-05T06:46:04.504Z,77.10
2018-07-05T06:48:44.288Z,77.30
2018-07-05T06:51:26.516Z,77.70
2018-07-05T06:54:06.346Z,77.00
2018-07-05T06:59:19.469Z,77.00
2018-07-05T07:01:59.026Z,76.40
2018-07-05T07:04:38.766Z,76.30
2018-07-05T07:07:18.302Z,76.50
2018-07-05T07:09:58.201Z,77.70
2018-07-05T07:12:38.035Z,78.40
2018-07-05T07:15:17.623Z,77.60
2018-07-05T07:17:57.251Z,77.90
2018-07-05T07:20:36.882Z,77.10
2018-07-05T07:23:16.557Z,77.80
2018-07-05T07:25:56.185Z,78.50
2018-07-05T07:28:35.784Z,78.60
2018-07-05T07:31:15.383Z,78.70
2018-07-05T07:34:02.274Z,76.80
2018-07-05T07:36:42.013Z,75.70
2018-07-05T07:39:21.613Z,75.90
2018-07-05T07:41:50.220Z,75.10
2018-07-05T07:46:58.681Z,74.80
2018-07-05T07:51:53.491Z,73.80
2018-07-05T07:54:20.768Z,74.20
2018-07-05T07:56:48.055Z,74.40
2018-07-05T07:59:15.320Z,73.60
2018-07-05T08:01:42.602Z,72.80
2018-07-05T08:04:09.883Z,71.10
2018-07-05T08:06:51.030Z,70.30
2018-07-05T08:09:18.332Z,70.00
2018-07-05T08:11:45.665Z,68.40
2018-07-05T08:14:12.953Z,65.80
2018-07-05T08:19:07.828Z,62.20
2018-07-05T08:21:35.086Z,60.90
2018-07-05T08:24:02.399Z,59.90
2018-07-05T08:26:29.697Z,59.00
2018-07-05T08:32:04.940Z,55.70
2018-07-05T08:34:32.225Z,53.90
2018-07-05T08:36:59.496Z,55.50
2018-07-05T08:39:26.789Z,56.10
2018-07-05T08:41:54.072Z,53.70
2018-07-05T08:44:21.368Z,52.80
2018-07-05T08:46:48.662Z,52.40
2018-07-05T08:49:15.945Z,50.80
2018-07-05T08:51:43.223Z,54.20
2018-07-05T08:54:25.315Z,54.30
2018-07-05T08:56:52.841Z,53.30
2018-07-05T08:59:20.144Z,53.40
2018-07-05T09:01:47.456Z,53.70
2018-07-05T09:04:14.814Z,53.50
2018-07-05T09:06:42.083Z,52.30
2018-07-05T09:09:09.380Z,51.80
2018-07-05T09:11:36.688Z,54.60
2018-07-05T09:14:03.957Z,52.40
2018-07-05T09:16:53.202Z,52.20
2018-07-05T09:19:20.505Z,50.90
2018-07-05T09:21:47.784Z,51.80
2018-07-05T09:24:15.087Z,54.30
2018-07-05T09:26:42.436Z,54.00
2018-07-05T09:29:09.697Z,53.70
2018-07-05T09:31:36.987Z,54.10
2018-07-05T09:34:04.762Z,52.30
2018-07-05T09:36:32.365Z,51.80
2018-07-05T09:39:04.641Z,50.40
2018-07-05T09:41:31.963Z,50.30
2018-07-05T09:43:59.276Z,52.00
2018-07-05T09:46:26.581Z,52.20
2018-07-05T09:48:53.917Z,52.00
2018-07-05T09:51:21.197Z,51.60
2018-07-05T09:53:48.500Z,51.60
2018-07-05T09:56:15.842Z,49.80
2018-07-05T09:58:43.110Z,50.20
2018-07-05T10:01:16.300Z,50.90
2018-07-05T10:06:11.233Z,50.50
2018-07-05T10:11:06.041Z,49.40
2018-07-05T10:13:33.564Z,49.10
2018-07-05T10:16:00.755Z,50.30
2018-07-05T10:18:28.053Z,51.20
2018-07-05T10:20:55.327Z,49.10
2018-07-05T10:26:31.628Z,48.10
2018-07-05T10:29:11.247Z,46.50
2018-07-05T10:31:50.911Z,46.70
2018-07-05T10:34:18.580Z,45.60
2018-07-05T10:36:46.011Z,45.80
2018-07-05T10:39:13.299Z,43.60
2018-07-05T10:41:53.207Z,42.80
2018-07-05T10:44:32.834Z,39.40
2018-07-05T10:47:16.110Z,36.60
2018-07-05T10:49:55.565Z,38.20
2018-07-05T10:52:35.576Z,39.20
2018-07-05T10:55:15.200Z,40.80
2018-07-05T10:57:54.751Z,40.40
2018-07-05T11:00:34.519Z,40.50
2018-07-05T11:03:14.160Z,41.30
2018-07-05T11:05:53.890Z,41.90
2018-07-05T11:11:27.490Z,42.00
2018-07-05T11:14:07.094Z,37.70
2018-07-05T11:16:47.290Z,35.20
2018-07-05T11:19:26.859Z,36.90
2018-07-05T11:22:06.578Z,37.40
2018-07-05T11:24:46.306Z,36.90
2018-07-05T11:27:25.885Z,37.80
2018-07-05T11:30:05.489Z,38.00
2018-07-05T11:35:39.237Z,38.50
2018-07-05T11:38:18.875Z,39.30
2018-07-05T11:40:58.482Z,37.60
2018-07-05T11:43:38.127Z,36.70
2018-07-05T11:46:17.725Z,37.40
2018-07-05T11:48:57.513Z,38.90
2018-07-05T11:51:37.139Z,38.10
2018-07-05T11:54:16.910Z,37.00
2018-07-05T11:56:59.950Z,40.60
2018-07-05T11:59:39.631Z,41.10
2018-07-05T12:02:19.347Z,39.70
2018-07-05T12:04:59.077Z,40.40
2018-07-05T12:07:38.680Z,41.30
2018-07-05T12:10:18.240Z,42.70
2018-07-05T12:12:57.949Z,41.50
2018-07-05T12:15:37.584Z,42.00
2018-07-05T12:18:21.264Z,42.10
2018-07-05T12:21:00.785Z,42.10
2018-07-05T12:23:40.460Z,42.10
2018-07-05T12:26:20.002Z,42.30
2018-07-05T12:28:59.680Z,41.30
2018-07-05T12:31:39.317Z,40.90
2018-07-05T12:34:19.017Z,41.50
2018-07-05T12:36:58.697Z,40.00
2018-07-05T12:39:43.564Z,40.70
2018-07-05T12:42:23.342Z,40.80
2018-07-05T12:45:03.099Z,41.70
2018-07-05T12:47:42.884Z,41.00
2018-07-05T12:50:22.614Z,41.90
2018-07-05T12:53:02.505Z,41.70
2018-07-05T12:55:42.213Z,42.90
2018-07-05T12:58:21.824Z,43.50
2018-07-05T13:12:37.994Z,43.40
2018-07-05T13:15:17.778Z,42.50
2018-07-05T13:17:57.448Z,41.70
2018-07-05T13:20:37.037Z,41.10
2018-07-05T13:23:16.653Z,42.00
2018-07-05T13:25:56.182Z,41.90
2018-07-05T13:28:36.225Z,42.30
2018-07-05T13:31:16.016Z,43.30
2018-07-05T13:48:29.469Z,41.70
2018-07-05T13:51:09.102Z,42.30
2018-07-05T13:56:23.568Z,44.10
2018-07-05T13:59:03.355Z,43.60
2018-07-05T14:01:42.923Z,46.20
2018-07-05T14:04:22.417Z,47.70
2018-07-05T14:07:02.102Z,46.80
2018-07-05T14:15:35.486Z,48.90
2018-07-05T14:18:15.023Z,49.80
2018-07-05T14:20:54.697Z,48.70
2018-07-05T14:23:34.259Z,48.20
2018-07-05T14:26:13.913Z,48.70
2018-07-05T14:28:53.727Z,49.00
2018-07-05T14:34:07.036Z,48.80
2018-07-05T14:36:53.823Z,49.90
2018-07-05T14:39:33.457Z,50.40
2018-07-05T14:42:12.977Z,49.40
2018-07-05T14:44:52.593Z,49.60
2018-07-05T14:47:32.049Z,50.40
2018-07-05T14:50:11.648Z,50.60
2018-07-05T14:52:51.206Z,51.10
2018-07-05T14:58:04.653Z,50.90
2018-07-05T15:00:44.156Z,50.50
2018-07-05T15:03:23.823Z,51.00
2018-07-05T15:06:03.382Z,50.60
2018-07-05T15:13:50.032Z,51.10
2018-07-05T15:16:29.598Z,50.80
2018-07-05T15:19:10.706Z,51.30
2018-07-05T15:21:50.605Z,51.00
2018-07-05T15:24:30.393Z,50.90
2018-07-05T15:27:10.095Z,51.00
2018-07-05T15:29:49.856Z,50.00
2018-07-05T15:32:29.473Z,49.30
2018-07-05T15:35:09.039Z,48.70
2018-07-05T15:37:48.738Z,48.60
2018-07-05T15:40:31.636Z,48.00
2018-07-05T15:43:11.128Z,47.30
2018-07-05T15:45:50.907Z,47.20
2018-07-05T15:48:30.438Z,46.80
2018-07-05T15:51:10.036Z,46.40
2018-07-05T15:53:49.558Z,45.70
2018-07-05T15:56:29.142Z,45.50
2018-07-05T15:59:08.902Z,45.60
2018-07-05T16:01:56.737Z,46.50
2018-07-05T16:04:36.266Z,46.30
2018-07-05T16:07:15.776Z,46.80
2018-07-05T16:09:55.427Z,45.90
2018-07-05T16:12:34.978Z,46.10
2018-07-05T16:15:14.569Z,45.40
2018-07-05T16:17:54.316Z,45.60
2018-07-05T16:20:33.916Z,45.20
2018-07-05T16:23:15.257Z,45.50
2018-07-05T16:25:54.807Z,45.90
2018-07-05T16:28:34.424Z,45.60
2018-07-05T16:31:13.977Z,46.50
2018-07-05T16:33:53.474Z,45.30
2018-07-05T16:36:33.208Z,46.10
2018-07-05T16:39:12.999Z,45.90
2018-07-05T16:41:52.703Z,46.60
2018-07-05T16:44:32.526Z,47.60
2018-07-05T16:47:12.325Z,47.80
2018-07-05T16:49:51.937Z,48.30
2018-07-05T16:52:31.513Z,48.60
2018-07-05T16:55:11.262Z,48.80
2018-07-05T16:57:50.921Z,49.30
2018-07-05T17:00:30.484Z,49.60
2018-07-05T17:03:10.064Z,50.00
2018-07-05T17:11:38.036Z,52.30
2018-07-05T17:14:17.777Z,52.50
2018-07-05T17:16:57.425Z,53.00
2018-07-05T17:19:37.188Z,53.80
2018-07-05T17:22:16.914Z,54.20
2018-07-05T17:24:56.574Z,54.90
2018-07-05T17:27:36.138Z,55.00
2018-07-05T17:30:15.823Z,55.60
2018-07-05T17:32:55.537Z,56.10
2018-07-05T17:35:35.174Z,56.60
2018-07-05T17:38:14.944Z,56.40
2018-07-05T17:40:54.564Z,57.20
2018-07-05T17:43:34.701Z,57.50
2018-07-05T17:46:14.439Z,57.50
2018-07-05T17:51:27.615Z,58.90
2018-07-05T17:54:07.737Z,58.90
2018-07-05T17:56:47.446Z,58.90
2018-07-05T17:59:27.603Z,59.40
2018-07-05T18:02:07.241Z,59.70
2018-07-05T18:04:46.911Z,59.60
2018-07-05T18:07:26.676Z,59.70
2018-07-05T18:10:06.467Z,60.10
2018-07-05T18:12:46.205Z,60.20
2018-07-05T18:29:54.132Z,61.80
2018-07-05T18:32:33.880Z,61.20
2018-07-05T18:35:13.609Z,61.20
2018-07-05T18:37:53.153Z,61.10
2018-07-05T18:40:32.717Z,61.20
2018-07-05T18:43:12.214Z,60.70
2018-07-05T18:45:51.708Z,60.60
2018-07-05T18:48:31.348Z,61.00
2018-07-05T18:51:12.401Z,60.60
2018-07-05T18:53:52.033Z,60.70
2018-07-05T18:56:31.608Z,60.60
2018-07-05T18:59:11.497Z,60.70
2018-07-05T19:01:51.238Z,60.30
2018-07-05T19:04:31.022Z,60.10
2018-07-05T19:07:10.696Z,60.30
2018-07-05T19:09:50.412Z,59.90
2018-07-05T19:12:33.937Z,59.30
2018-07-05T19:15:13.662Z,59.20
2018-07-05T19:17:53.267Z,58.90
2018-07-05T19:20:32.851Z,58.70
2018-07-05T19:23:12.490Z,58.50
2018-07-05T19:25:52.189Z,58.40
2018-07-05T19:28:31.968Z,58.00
2018-07-05T19:31:11.523Z,58.20
2018-07-05T19:33:58.217Z,59.00
2018-07-05T19:36:37.700Z,59.00
2018-07-05T19:39:17.288Z,59.10
2018-07-05T19:41:56.807Z,59.00
2018-07-05T19:44:36.409Z,59.00
2018-07-05T19:47:16.045Z,60.60
2018-07-05T19:49:55.755Z,61.70
2018-07-05T19:52:35.413Z,62.50
2018-07-05T19:55:20.618Z,62.60
2018-07-05T19:58:00.302Z,62.60
2018-07-05T20:00:40.202Z,62.80
2018-07-05T20:03:19.794Z,62.80
2018-07-05T20:05:59.337Z,62.80
2018-07-05T20:08:38.897Z,63.40
2018-07-05T20:11:18.614Z,63.20
2018-07-05T20:13:58.242Z,63.10
2018-07-05T20:16:37.934Z,63.10
2018-07-05T20:19:17.711Z,62.60
2018-07-05T20:21:57.466Z,63.40
2018-07-05T20:24:37.152Z,63.80
2018-07-05T20:27:16.794Z,64.60
2018-07-05T20:29:56.479Z,64.50
2018-07-05T20:32:36.191Z,63.90
2018-07-05T20:35:15.743Z,64.50
2018-07-05T20:40:29.953Z,64.40
2018-07-05T20:43:09.549Z,64.50
2018-07-05T20:48:22.771Z,64.50
2018-07-05T20:51:02.180Z,65.10
2018-07-05T20:53:41.734Z,64.80
2018-07-05T20:56:21.459Z,64.80
2018-07-05T21:04:27.732Z,65.10
2018-07-05T21:07:07.441Z,65.50
2018-07-05T21:09:47.629Z,66.00
2018-07-05T21:12:27.465Z,65.90
2018-07-05T21:15:07.081Z,66.10
2018-07-05T21:17:46.633Z,66.70
2018-07-05T21:20:26.323Z,66.40
2018-07-05T21:26:01.057Z,66.60
2018-07-05T21:28:40.593Z,67.00
2018-07-05T21:31:20.156Z,67.20
2018-07-05T21:33:59.766Z,67.50
2018-07-05T21:36:39.478Z,67.60
2018-07-05T21:39:19.160Z,68.50
2018-07-05T21:41:58.580Z,69.10
2018-07-05T21:44:38.099Z,69.70
2018-07-05T21:47:21.585Z,69.50
2018-07-05T21:50:01.107Z,69.10
2018-07-05T21:52:40.530Z,69.20
2018-07-05T21:55:20.181Z,70.20
2018-07-05T21:57:59.830Z,69.90
2018-07-05T22:00:39.475Z,70.20
2018-07-05T22:03:19.092Z,70.10
2018-07-05T22:05:58.640Z,69.90
2018-07-05T22:08:41.929Z,69.90
2018-07-05T22:11:21.665Z,70.10
2018-07-05T22:14:01.554Z,70.40
2018-07-05T22:16:46.840Z,70.20
2018-07-05T22:19:31.832Z,71.00
2018-07-05T22:22:16.902Z,71.00
2018-07-05T22:25:01.947Z,71.10
2018-07-05T22:27:46.944Z,70.90
2018-07-05T22:30:35.134Z,71.60
2018-07-05T22:33:14.728Z,71.40
2018-07-05T22:35:54.286Z,71.70
2018-07-05T22:38:33.838Z,71.80
2018-07-05T22:43:46.968Z,72.40
2018-07-05T22:49:00.560Z,72.20
2018-07-05T22:51:40.099Z,72.40
2018-07-05T22:54:19.615Z,72.50
2018-07-05T22:56:59.291Z,72.40
2018-07-05T22:59:39.021Z,72.70
2018-07-05T23:02:18.812Z,72.90
2018-07-05T23:04:58.563Z,73.30
2018-07-05T23:07:38.272Z,73.40
2018-07-05T23:10:17.780Z,73.70
2018-07-05T23:12:58.188Z,73.50
2018-07-05T23:15:37.803Z,74.20
2018-07-05T23:18:17.352Z,74.10
2018-07-05T23:20:57.005Z,73.70
2018-07-05T23:23:36.530Z,73.70
2018-07-05T23:26:16.191Z,73.50
2018-07-05T23:28:55.931Z,73.60
2018-07-05T23:31:35.597Z,73.60
2018-07-05T23:34:16.348Z,74.10
2018-07-05T23:36:56.023Z,73.80
2018-07-05T23:39:35.758Z,74.60
2018-07-05T23:42:15.341Z,74.40
2018-07-05T23:44:54.947Z,74.30
2018-07-05T23:47:34.739Z,74.40
2018-07-05T23:50:14.493Z,74.80
2018-07-05T23:58:20.834Z,74.90
